Ezaudi — FGD9763 — position and weather

sailwx.info

Track history (hours):
 
Tides and Currents Weather Stations Pressure Air Temp Water Temp Dewpoint Dewpoint Depression Visibility Wind Speed Wind Dir Waves Ship Positions

Ezaudi

Last reported at 2017-Oct-27 07:45 UTC. Time now 2017-Dec-11 23:02 UTC.
Position N 47°24' W 002°57'.
Warning: this ship's position is 45 days out of date.

Length 10 m.

Type: Pleasure craft. MMSI: 227611680.

Date/timePositionNaut miles runAvg speedWind from/ knotsBaromVisibWave heightAir tempDewpointWater temp
2017-Oct-27 07:45N 47°24' W 002°57'2 0.1
2017-Oct-26 15:05N 47°24' W 002°60'1 5.5
2017-Oct-26 14:51N 47°25' W 003°01'2 5.1
2017-Oct-26 14:30N 47°25' W 003°04'2 4.9
2017-Oct-26 14:00N 47°27' W 003°07'2 4.4
2017-Oct-26 13:30N 47°28' W 003°09'2 4.1
2017-Oct-26 13:00N 47°30' W 003°11'2 4.2
2017-Oct-26 12:30N 47°32' W 003°13'2 4.6
2017-Oct-26 12:01N 47°34' W 003°15'2 4.5
2017-Oct-26 11:30N 47°36' W 003°16'2 4.6
2017-Oct-26 11:00N 47°38' W 003°18'2 4.6
2017-Oct-26 10:30N 47°39' W 003°20'2 4.1
2017-Oct-26 10:00N 47°41' W 003°22'2 4.2
2017-Oct-26 09:30N 47°43' W 003°22'0 0.4
2017-Oct-26 09:00N 47°43' W 003°21'0 0.0
2017-Oct-26 08:30N 47°43' W 003°21'0 0.0
2017-Oct-26 07:59N 47°43' W 003°21'0 0.0
2017-Oct-25 14:17N 47°43' W 003°21'0 0.0
2017-Oct-25 13:56N 47°43' W 003°21'0 0.0
2017-Oct-25 13:28N 47°43' W 003°21'1 2.4
2017-Oct-25 13:00N 47°42' W 003°22'2 4.6
2017-Oct-25 12:31N 47°40' W 003°21'3 5.0
2017-Oct-25 12:00N 47°37' W 003°20'3 4.8
2017-Oct-25 11:22N 47°35' W 003°18'2 4.6
2017-Oct-25 10:56N 47°33' W 003°16'2 4.9
2017-Oct-25 10:27N 47°31' W 003°15'2 4.5
2017-Oct-25 10:00N 47°29' W 003°13'2 4.9
2017-Oct-25 09:30N 47°27' W 003°12'4 3.5
2017-Oct-25 08:25N 47°23' W 003°10'  
Track history (hours):
 
Tides and Currents Weather Stations Pressure Air Temp Water Temp Dewpoint Dewpoint Depression Visibility Wind Speed Wind Dir Waves Ship Positions

Ezaudi

Last reported at 2017-Oct-27 07:45 UTC. Time now 2017-Dec-11 23:02 UTC.
Position N 47°24' W 002°57'.
Warning: this ship's position is 45 days out of date.

Length 10 m.

Type: Pleasure craft. MMSI: 227611680.

Date/timePositionNaut miles runAvg speedWind from/ knotsBaromVisibWave heightAir tempDewpointWater temp
2017-Oct-27 07:45N 47°24' W 002°57'2 0.1
2017-Oct-26 15:05N 47°24' W 002°60'1 5.5
2017-Oct-26 14:51N 47°25' W 003°01'2 5.1
2017-Oct-26 14:30N 47°25' W 003°04'2 4.9
2017-Oct-26 14:00N 47°27' W 003°07'2 4.4
2017-Oct-26 13:30N 47°28' W 003°09'2 4.1
2017-Oct-26 13:00N 47°30' W 003°11'2 4.2
2017-Oct-26 12:30N 47°32' W 003°13'2 4.6
2017-Oct-26 12:01N 47°34' W 003°15'2 4.5
2017-Oct-26 11:30N 47°36' W 003°16'2 4.6
2017-Oct-26 11:00N 47°38' W 003°18'2 4.6
2017-Oct-26 10:30N 47°39' W 003°20'2 4.1
2017-Oct-26 10:00N 47°41' W 003°22'2 4.2
2017-Oct-26 09:30N 47°43' W 003°22'0 0.4
2017-Oct-26 09:00N 47°43' W 003°21'0 0.0
2017-Oct-26 08:30N 47°43' W 003°21'0 0.0
2017-Oct-26 07:59N 47°43' W 003°21'0 0.0
2017-Oct-25 14:17N 47°43' W 003°21'0 0.0
2017-Oct-25 13:56N 47°43' W 003°21'0 0.0
2017-Oct-25 13:28N 47°43' W 003°21'1 2.4
2017-Oct-25 13:00N 47°42' W 003°22'2 4.6
2017-Oct-25 12:31N 47°40' W 003°21'3 5.0
2017-Oct-25 12:00N 47°37' W 003°20'3 4.8
2017-Oct-25 11:22N 47°35' W 003°18'2 4.6
2017-Oct-25 10:56N 47°33' W 003°16'2 4.9
2017-Oct-25 10:27N 47°31' W 003°15'2 4.5
2017-Oct-25 10:00N 47°29' W 003°13'2 4.9
2017-Oct-25 09:30N 47°27' W 003°12'4 3.5
2017-Oct-25 08:25N 47°23' W 003°10'  

Dump ship's entire track history